Time;durP1;ratioP1;P1;durP2;ratioP2;P2;SDS_P1;SDS_P2;PMS_P1;PMS_P2;Temp;Humidity;BMP_temperature;BMP_pressure;BME280_temperature;BME280_humidity;BME280_pressure;Samples;Min_cycle;Max_cycle;Signal;HPM_P1;HPM_P2
2023/03/05 00:00:46;;;;;;;14.23;1.77;;;2.60;99.90;;;;;;5032755;28;20065;-77
2023/03/05 00:03:12;;;;;;;10.60;1.70;;;2.60;99.90;;;;;;5031758;28;20140;-77
2023/03/05 00:05:38;;;;;;;15.00;2.30;;;2.60;99.90;;;;;;5031962;28;20041;-77
2023/03/05 00:08:03;;;;;;;10.73;1.73;;;2.60;99.90;;;;;;5015951;28;20100;-77
2023/03/05 00:10:29;;;;;;;10.20;2.00;;;2.70;99.90;;;;;;5032538;28;20095;-77
2023/03/05 00:12:55;;;;;;;11.70;2.87;;;2.60;99.90;;;;;;5031607;28;20479;-77
2023/03/05 00:15:20;;;;;;;12.53;1.90;;;2.70;99.90;;;;;;5032174;28;20053;-78
2023/03/05 00:17:46;;;;;;;13.87;2.93;;;2.90;99.90;;;;;;5014675;28;19956;-77
2023/03/05 00:20:12;;;;;;;13.17;3.10;;;2.70;99.90;;;;;;5032334;28;20107;-77
2023/03/05 00:22:38;;;;;;;13.97;2.97;;;2.70;99.90;;;;;;5031772;28;20076;-77
2023/03/05 00:25:04;;;;;;;7.50;1.73;;;2.80;99.90;;;;;;5042577;28;20045;-77
2023/03/05 00:27:29;;;;;;;9.30;1.67;;;2.70;99.90;;;;;;5014811;28;20496;-77
2023/03/05 00:29:55;;;;;;;7.13;1.10;;;2.70;99.90;;;;;;5031767;28;20053;-77
2023/03/05 00:32:21;;;;;;;6.97;1.37;;;2.70;99.90;;;;;;5029791;28;20559;-77
2023/03/05 00:34:48;;;;;;;9.53;1.10;;;2.80;99.90;;;;;;5031829;28;20049;-77
2023/03/05 00:37:15;;;;;;;6.30;1.00;;;2.70;99.90;;;;;;5015198;28;20396;-74
2023/03/05 00:39:40;;;;;;;8.17;0.70;;;2.80;99.90;;;;;;5024475;28;20333;-77
2023/03/05 00:42:07;;;;;;;3.37;0.50;;;2.80;99.90;;;;;;5030593;28;20100;-77
2023/03/05 00:44:32;;;;;;;4.93;0.73;;;2.80;99.90;;;;;;5030514;28;20364;-77
2023/03/05 00:46:58;;;;;;;5.87;0.63;;;2.90;99.90;;;;;;5020948;28;20145;-77
2023/03/05 00:49:24;;;;;;;4.50;0.53;;;2.80;99.90;;;;;;5040121;28;20068;-78
2023/03/05 00:51:50;;;;;;;5.20;0.50;;;3.00;99.90;;;;;;5051754;28;20052;-77
2023/03/05 00:54:15;;;;;;;7.07;0.60;;;2.80;99.90;;;;;;5039283;28;20463;-77
2023/03/05 00:56:41;;;;;;;7.60;0.70;;;2.80;99.90;;;;;;5032002;28;20095;-77
2023/03/05 00:59:07;;;;;;;8.37;0.80;;;2.70;99.90;;;;;;5030486;28;20077;-77
2023/03/05 01:01:33;;;;;;;7.57;0.80;;;2.70;99.90;;;;;;5030368;28;20132;-77
2023/03/05 01:04:00;;;;;;;5.97;0.93;;;2.70;99.90;;;;;;5012483;28;20076;-77
2023/03/05 01:06:26;;;;;;;8.67;0.83;;;2.70;99.90;;;;;;5018799;28;20478;-78
2023/03/05 01:08:52;;;;;;;9.57;1.10;;;2.90;99.90;;;;;;5026481;28;20124;-78
2023/03/05 01:11:18;;;;;;;5.97;1.00;;;2.70;99.90;;;;;;5030268;28;20057;-78
2023/03/05 01:13:43;;;;;;;14.10;1.87;;;2.70;99.90;;;;;;5030210;28;20077;-77
2023/03/05 01:16:11;;;;;;;6.07;1.10;;;2.60;99.90;;;;;;5023054;28;20053;-78
2023/03/05 01:18:38;;;;;;;13.63;1.40;;;2.50;99.90;;;;;;5024372;28;20045;-76
2023/03/05 01:21:04;;;;;;;6.67;1.10;;;2.50;99.90;;;;;;5031088;28;20529;-77
2023/03/05 01:23:31;;;;;;;9.23;1.00;;;2.50;99.90;;;;;;5031076;28;20049;-77
2023/03/05 01:25:58;;;;;;;6.70;1.10;;;2.40;99.90;;;;;;5038645;28;20049;-78
2023/03/05 01:28:24;;;;;;;6.97;1.10;;;2.40;99.90;;;;;;5014716;28;20045;-77
2023/03/05 01:30:50;;;;;;;5.70;0.50;;;2.50;99.90;;;;;;5030681;28;20049;-77
2023/03/05 01:33:16;;;;;;;7.23;1.03;;;2.70;99.90;;;;;;5029974;28;20492;-78
2023/03/05 01:35:46;;;;;;;11.50;1.17;;;2.40;99.90;;;;;;5028206;28;20049;-77
2023/03/05 01:38:11;;;;;;;5.20;0.70;;;2.30;99.90;;;;;;5014867;28;20057;-77
2023/03/05 01:40:37;;;;;;;8.10;0.90;;;2.30;99.90;;;;;;5013041;28;20057;-77
2023/03/05 01:43:27;;;;;;;4.87;0.73;;;2.30;99.90;;;;;;5042762;28;20053;-77
2023/03/05 01:46:27;;;;;;;9.23;1.10;;;2.70;99.90;;;;;;5043706;28;20067;-77
2023/03/05 01:49:03;;;;;;;6.50;1.10;;;2.30;99.90;;;;;;5018339;28;20502;-77
2023/03/05 01:51:38;;;;;;;6.03;0.77;;;2.20;99.90;;;;;;5049981;28;20045;-77
2023/03/05 01:54:06;;;;;;;10.57;1.23;;;2.20;99.90;;;;;;5039667;28;20050;-77
2023/03/05 01:56:31;;;;;;;4.37;0.50;;;2.20;99.90;;;;;;5016571;28;20057;-78
2023/03/05 01:59:02;;;;;;;6.50;1.00;;;2.20;99.90;;;;;;5027207;28;20117;-78
2023/03/05 02:01:41;;;;;;;5.83;0.70;;;2.20;99.90;;;;;;5029363;28;20572;-77
2023/03/05 02:04:10;;;;;;;5.17;0.60;;;2.20;99.90;;;;;;5029221;28;20525;-77
2023/03/05 02:06:38;;;;;;;9.77;0.90;;;2.20;99.90;;;;;;5016137;28;20045;-77
2023/03/05 02:09:03;;;;;;;5.63;0.90;;;2.20;99.90;;;;;;5026779;28;20041;-77
2023/03/05 02:11:29;;;;;;;7.53;0.90;;;2.50;99.90;;;;;;5030173;28;20046;-77
2023/03/05 02:13:55;;;;;;;5.50;1.03;;;2.30;99.90;;;;;;5029683;28;20373;-77
2023/03/05 02:16:21;;;;;;;3.43;0.70;;;2.30;99.90;;;;;;5017282;28;20391;-78
2023/03/05 02:18:47;;;;;;;9.30;1.00;;;2.90;99.90;;;;;;5025527;28;20107;-77
2023/03/05 02:21:12;;;;;;;6.53;0.87;;;2.30;99.90;;;;;;5012324;28;20531;-77
2023/03/05 02:23:39;;;;;;;6.90;0.77;;;2.20;99.90;;;;;;5032532;28;20095;-77
2023/03/05 02:26:07;;;;;;;9.70;0.90;;;2.20;99.90;;;;;;5036465;28;20041;-77
2023/03/05 02:28:41;;;;;;;7.73;0.90;;;2.60;99.90;;;;;;5019804;28;20400;-78
2023/03/05 02:31:11;;;;;;;8.17;1.07;;;2.20;99.90;;;;;;5027750;28;20392;-77
2023/03/05 02:33:37;;;;;;;8.00;1.00;;;2.30;99.90;;;;;;5028480;28;20073;-77
2023/03/05 02:36:03;;;;;;;6.90;1.10;;;2.20;99.90;;;;;;5028541;28;20084;-77
2023/03/05 02:38:29;;;;;;;10.27;1.20;;;2.20;99.90;;;;;;5014317;28;20065;-77
2023/03/05 02:40:54;;;;;;;10.17;1.10;;;2.70;99.90;;;;;;5009962;28;20054;-78
2023/03/05 02:43:20;;;;;;;5.73;1.20;;;2.20;99.90;;;;;;5044829;28;20052;-77
2023/03/05 02:45:46;;;;;;;7.20;0.93;;;2.90;99.90;;;;;;5039823;28;20084;-77
2023/03/05 02:48:11;;;;;;;9.90;1.30;;;2.20;99.90;;;;;;5022490;28;20046;-77
2023/03/05 02:50:38;;;;;;;13.90;1.47;;;2.30;99.90;;;;;;5046121;28;20507;-77
2023/03/05 02:53:05;;;;;;;10.87;1.60;;;2.60;99.90;;;;;;5048496;28;20056;-77
2023/03/05 02:55:31;;;;;;;6.07;1.30;;;2.70;99.90;;;;;;5049240;28;20052;-78
2023/03/05 02:57:57;;;;;;;14.27;1.40;;;2.20;99.90;;;;;;5015173;28;20072;-77
2023/03/05 03:00:22;;;;;;;12.93;1.50;;;2.50;99.90;;;;;;5040108;28;20050;-78
2023/03/05 03:02:48;;;;;;;12.37;1.73;;;2.20;99.90;;;;;;5028281;28;20057;-77
2023/03/05 03:05:15;;;;;;;5.87;1.00;;;2.20;99.90;;;;;;5029446;28;20048;-77
2023/03/05 03:07:40;;;;;;;10.43;1.50;;;2.20;99.90;;;;;;5010674;28;20037;-77
2023/03/05 03:10:07;;;;;;;10.70;1.70;;;2.20;99.90;;;;;;5026208;28;20049;-78
2023/03/05 03:12:37;;;;;;;5.87;1.43;;;2.10;99.90;;;;;;5027968;28;20064;-77
2023/03/05 03:15:03;;;;;;;7.00;1.27;;;2.10;99.90;;;;;;5029341;28;20395;-78
2023/03/05 03:17:29;;;;;;;9.53;1.53;;;2.10;99.90;;;;;;5012815;28;20483;-77
2023/03/05 03:19:54;;;;;;;6.47;1.17;;;2.00;99.90;;;;;;5029545;28;20050;-77
2023/03/05 03:22:20;;;;;;;8.20;1.23;;;2.10;99.90;;;;;;5026866;28;20457;-77
2023/03/05 03:24:46;;;;;;;8.43;1.53;;;2.20;99.90;;;;;;5030168;28;20081;-77
2023/03/05 03:27:11;;;;;;;8.50;1.30;;;2.00;99.90;;;;;;5033355;28;20120;-77
2023/03/05 03:29:37;;;;;;;6.57;1.30;;;1.90;99.90;;;;;;5049252;28;20515;-77
2023/03/05 03:32:03;;;;;;;9.20;0.97;;;1.90;99.90;;;;;;5048199;28;20084;-78
2023/03/05 03:34:29;;;;;;;9.20;1.10;;;1.90;99.90;;;;;;5049357;28;20468;-77
2023/03/05 03:36:54;;;;;;;9.60;1.20;;;1.90;99.90;;;;;;5019667;28;20326;-77
2023/03/05 03:39:21;;;;;;;5.27;1.00;;;2.30;99.90;;;;;;5021105;28;20148;-77
2023/03/05 03:41:49;;;;;;;9.53;1.30;;;1.90;99.90;;;;;;5036984;28;20080;-77
2023/03/05 03:44:19;;;;;;;5.13;1.00;;;1.80;99.90;;;;;;5048055;28;20052;-77
2023/03/05 03:46:46;;;;;;;6.03;1.00;;;1.80;99.90;;;;;;5011867;28;20049;-78
2023/03/05 03:49:21;;;;;;;5.37;1.30;;;1.90;99.90;;;;;;5032174;28;20049;-78
2023/03/05 03:51:48;;;;;;;7.00;0.97;;;1.80;99.90;;;;;;5049206;28;20041;-77
2023/03/05 03:54:16;;;;;;;6.10;0.97;;;1.80;99.90;;;;;;5038421;28;20049;-77
2023/03/05 03:56:42;;;;;;;7.73;1.00;;;2.20;99.90;;;;;;5014327;28;20124;-78
2023/03/05 03:59:08;;;;;;;9.70;1.30;;;2.10;99.90;;;;;;5026382;28;20124;-77
2023/03/05 04:01:34;;;;;;;9.50;1.20;;;2.20;99.90;;;;;;5026562;28;20400;-78
2023/03/05 04:04:00;;;;;;;10.10;1.20;;;1.80;99.90;;;;;;5010428;28;20129;-77
2023/03/05 04:06:26;;;;;;;7.33;1.03;;;1.80;99.90;;;;;;5000696;28;20056;-77
2023/03/05 04:08:51;;;;;;;4.10;1.00;;;1.70;99.90;;;;;;5007524;28;20050;-77
2023/03/05 04:11:21;;;;;;;6.60;1.00;;;1.80;99.90;;;;;;5026748;28;20049;-78
2023/03/05 04:13:47;;;;;;;7.47;1.00;;;1.80;99.90;;;;;;5029997;28;20068;-77
2023/03/05 04:16:13;;;;;;;7.90;1.53;;;1.80;99.90;;;;;;5021928;28;20152;-78
2023/03/05 04:18:39;;;;;;;7.87;1.10;;;1.70;99.90;;;;;;5024861;28;20128;-77
2023/03/05 04:21:05;;;;;;;3.33;1.00;;;1.80;99.90;;;;;;5032828;28;20120;-77
2023/03/05 04:23:31;;;;;;;6.37;1.13;;;1.80;99.90;;;;;;5032413;28;20483;-77
2023/03/05 04:25:57;;;;;;;9.40;1.30;;;1.80;99.90;;;;;;5041763;28;20045;-77
2023/03/05 04:28:22;;;;;;;9.43;1.23;;;1.80;99.90;;;;;;5016259;28;20425;-77
2023/03/05 04:30:48;;;;;;;11.03;1.70;;;1.80;99.90;;;;;;5032015;28;20045;-77
2023/03/05 04:33:14;;;;;;;8.93;1.50;;;2.30;99.90;;;;;;5031352;28;20061;-77
2023/03/05 04:35:40;;;;;;;7.60;1.53;;;1.90;99.90;;;;;;5031529;28;20045;-78
2023/03/05 04:38:06;;;;;;;9.17;1.20;;;1.90;99.90;;;;;;5014455;28;20745;-78
2023/03/05 04:40:33;;;;;;;4.73;1.30;;;1.90;99.90;;;;;;5014072;28;20054;-77
2023/03/05 04:42:59;;;;;;;5.23;0.90;;;1.80;99.90;;;;;;5042909;28;20044;-77
2023/03/05 04:45:24;;;;;;;5.43;1.07;;;1.90;99.90;;;;;;5050771;28;20402;-78
2023/03/05 04:47:50;;;;;;;6.50;0.83;;;1.90;99.90;;;;;;5021926;28;20103;-77
2023/03/05 04:50:16;;;;;;;14.97;0.87;;;2.00;99.90;;;;;;5043639;28;20036;-77
2023/03/05 04:52:44;;;;;;;8.57;1.00;;;2.00;99.90;;;;;;5049954;28;20049;-77
2023/03/05 04:55:12;;;;;;;9.37;0.77;;;2.00;99.90;;;;;;5031531;28;20391;-77
2023/03/05 04:57:38;;;;;;;7.70;1.10;;;2.00;99.90;;;;;;5014226;28;20049;-77
2023/03/05 05:00:06;;;;;;;5.53;0.60;;;1.90;99.90;;;;;;5046384;28;20128;-76
2023/03/05 05:02:33;;;;;;;4.87;0.37;;;1.70;99.90;;;;;;5031091;28;20050;-77
2023/03/05 05:04:58;;;;;;;5.77;0.57;;;1.60;99.90;;;;;;5011854;28;20054;-77
2023/03/05 05:07:24;;;;;;;10.87;0.73;;;1.50;99.90;;;;;;4995461;28;20068;-77
2023/03/05 05:09:50;;;;;;;5.43;0.50;;;1.60;99.90;;;;;;5013135;28;20046;-77
2023/03/05 05:12:16;;;;;;;6.53;0.60;;;1.50;99.90;;;;;;5030433;28;20045;-77
2023/03/05 05:14:41;;;;;;;4.77;0.50;;;1.50;99.90;;;;;;5030341;28;20053;-77
2023/03/05 05:17:07;;;;;;;4.63;0.67;;;1.50;99.90;;;;;;5014368;28;20162;-77
2023/03/05 05:19:34;;;;;;;3.70;0.50;;;1.50;99.90;;;;;;5029562;28;20037;-77
2023/03/05 05:22:00;;;;;;;3.80;0.60;;;1.60;99.90;;;;;;5030271;28;20096;-78
2023/03/05 05:24:26;;;;;;;8.23;0.90;;;1.50;99.90;;;;;;5025871;28;20164;-77
2023/03/05 05:26:54;;;;;;;5.23;0.80;;;1.70;99.90;;;;;;5016942;28;20499;-78
2023/03/05 05:29:20;;;;;;;6.73;0.70;;;1.70;99.90;;;;;;5038173;28;20045;-78
2023/03/05 05:31:46;;;;;;;4.40;0.40;;;1.50;99.90;;;;;;5018382;28;20050;-78
2023/03/05 05:34:12;;;;;;;4.30;0.60;;;1.60;99.90;;;;;;5026397;28;20048;-77
2023/03/05 05:36:37;;;;;;;5.50;0.80;;;1.50;99.90;;;;;;5020653;28;20048;-77
2023/03/05 05:39:03;;;;;;;7.17;0.77;;;1.90;99.90;;;;;;5008504;28;20049;-78
2023/03/05 05:41:29;;;;;;;2.27;0.40;;;1.50;99.90;;;;;;5017523;28;20118;-77
2023/03/05 05:43:55;;;;;;;3.97;0.97;;;1.40;99.90;;;;;;5049569;28;20152;-77
2023/03/05 05:46:21;;;;;;;5.83;0.80;;;1.40;99.90;;;;;;5025871;28;20049;-78
2023/03/05 05:48:47;;;;;;;6.17;0.80;;;1.30;99.90;;;;;;5029904;28;20093;-77
2023/03/05 05:51:17;;;;;;;5.70;0.70;;;1.70;99.90;;;;;;5018340;28;20462;-77
2023/03/05 05:53:43;;;;;;;4.67;0.87;;;1.30;99.90;;;;;;5026863;28;20049;-77
2023/03/05 05:56:10;;;;;;;6.13;0.80;;;1.60;99.90;;;;;;5020492;28;20053;-78
2023/03/05 05:58:38;;;;;;;6.40;0.90;;;1.40;99.90;;;;;;5038578;28;20052;-77
2023/03/05 06:01:16;;;;;;;7.53;1.10;;;1.80;99.90;;;;;;5029939;28;20057;-77
2023/03/05 06:03:42;;;;;;;5.97;0.93;;;1.30;99.90;;;;;;5029338;28;20049;-77
2023/03/05 06:06:13;;;;;;;8.90;1.03;;;1.30;99.90;;;;;;5022726;28;20103;-77
2023/03/05 06:08:39;;;;;;;2.40;0.63;;;1.20;99.90;;;;;;5021623;28;20041;-77
2023/03/05 06:11:05;;;;;;;8.17;0.80;;;1.20;99.90;;;;;;5030281;28;20128;-77
2023/03/05 06:13:32;;;;;;;8.93;0.93;;;1.60;99.90;;;;;;5029687;28;20084;-77
2023/03/05 06:15:59;;;;;;;5.93;1.33;;;1.30;99.90;;;;;;5030322;28;20073;-77
2023/03/05 06:18:25;;;;;;;6.97;0.90;;;1.30;99.90;;;;;;5012873;28;20067;-77
2023/03/05 06:21:00;;;;;;;4.10;0.97;;;1.30;99.90;;;;;;5013028;28;20051;-77
2023/03/05 06:23:27;;;;;;;3.97;0.90;;;1.30;99.90;;;;;;5027169;28;20085;-77
2023/03/05 06:25:53;;;;;;;13.20;1.10;;;1.30;99.90;;;;;;5036899;28;20049;-77
2023/03/05 06:28:20;;;;;;;5.20;1.07;;;1.30;99.90;;;;;;5009552;28;20041;-77
2023/03/05 06:30:46;;;;;;;9.30;1.00;;;1.30;99.90;;;;;;5025584;28;20048;-77
2023/03/05 06:33:12;;;;;;;8.43;1.43;;;1.70;99.90;;;;;;5027129;28;20073;-77
2023/03/05 06:35:39;;;;;;;9.53;1.50;;;1.30;99.90;;;;;;5028137;28;20080;-77
2023/03/05 06:38:05;;;;;;;9.43;1.33;;;1.20;99.90;;;;;;5014639;28;20053;-77
2023/03/05 06:40:31;;;;;;;9.33;1.30;;;1.50;99.90;;;;;;5012549;28;20061;-77
2023/03/05 06:42:57;;;;;;;9.73;1.70;;;1.30;99.90;;;;;;5031578;28;20093;-78
2023/03/05 06:45:22;;;;;;;12.73;3.10;;;1.20;99.90;;;;;;5028561;28;20037;-78
2023/03/05 06:47:48;;;;;;;9.83;1.73;;;1.20;99.90;;;;;;5024478;28;20063;-77
2023/03/05 06:50:14;;;;;;;9.00;1.67;;;1.10;99.90;;;;;;5042206;28;20076;-77
2023/03/05 06:52:40;;;;;;;7.23;1.20;;;1.10;99.90;;;;;;5048995;28;20041;-77
2023/03/05 06:55:07;;;;;;;11.07;1.33;;;1.20;99.90;;;;;;5032366;28;20084;-77
2023/03/05 06:57:32;;;;;;;6.03;1.00;;;1.20;99.90;;;;;;5011673;28;20045;-77
2023/03/05 06:59:58;;;;;;;7.93;1.00;;;1.70;99.90;;;;;;5028957;28;20057;-77
2023/03/05 07:02:25;;;;;;;7.53;1.23;;;1.30;99.90;;;;;;5027276;28;20109;-78
2023/03/05 07:04:50;;;;;;;8.27;1.40;;;1.30;99.90;;;;;;5029464;28;20045;-78
2023/03/05 07:07:16;;;;;;;9.20;1.23;;;1.30;99.90;;;;;;5013621;28;20046;-77
2023/03/05 07:09:44;;;;;;;10.23;1.73;;;1.40;99.90;;;;;;5027953;28;20084;-78
2023/03/05 07:12:10;;;;;;;7.23;1.23;;;1.40;99.90;;;;;;5026483;28;20049;-78
2023/03/05 07:14:37;;;;;;;11.03;1.50;;;1.40;99.90;;;;;;5029799;28;20156;-77
2023/03/05 07:17:05;;;;;;;6.03;1.50;;;1.40;99.90;;;;;;5013237;28;20037;-76
2023/03/05 07:19:31;;;;;;;4.53;1.07;;;1.50;99.90;;;;;;5029420;28;20099;-77
2023/03/05 07:21:57;;;;;;;7.30;1.10;;;1.80;99.90;;;;;;5029030;28;20049;-78
2023/03/05 07:24:27;;;;;;;13.00;1.70;;;1.70;99.90;;;;;;5028567;28;20053;-78
2023/03/05 07:26:53;;;;;;;6.95;1.38;;;1.80;99.90;;;;;;5032008;28;20058;-78
2023/03/05 07:29:19;;;;;;;9.37;1.50;;;1.80;99.90;;;;;;5048308;28;20094;-78
2023/03/05 07:31:44;;;;;;;8.63;1.37;;;2.00;99.90;;;;;;5049195;28;20053;-78
2023/03/05 07:34:10;;;;;;;11.07;1.77;;;2.00;99.90;;;;;;5030281;28;20064;-78
2023/03/05 07:36:36;;;;;;;11.70;1.40;;;2.20;99.90;;;;;;5028152;28;20037;-78
2023/03/05 07:39:06;;;;;;;14.17;1.93;;;2.40;99.90;;;;;;5026739;28;20060;-78
2023/03/05 07:41:31;;;;;;;8.80;1.50;;;2.30;99.90;;;;;;5036591;28;20064;-78
2023/03/05 07:43:57;;;;;;;9.83;1.83;;;2.30;99.90;;;;;;5036313;28;20045;-78
2023/03/05 07:46:26;;;;;;;7.03;1.37;;;2.30;99.90;;;;;;5018434;28;20047;-78
2023/03/05 07:48:53;;;;;;;11.33;1.77;;;2.30;99.90;;;;;;5029381;28;20072;-78
2023/03/05 07:51:21;;;;;;;15.03;1.63;;;2.40;99.90;;;;;;5037251;28;20088;-78
2023/03/05 07:53:48;;;;;;;8.97;1.60;;;2.50;99.90;;;;;;5028480;28;20057;-78
2023/03/05 07:56:23;;;;;;;6.13;1.70;;;2.50;99.90;;;;;;5019513;28;20046;-78
2023/03/05 07:58:49;;;;;;;13.83;1.80;;;2.50;99.90;;;;;;5025521;28;20132;-78
2023/03/05 08:01:15;;;;;;;14.07;1.40;;;2.70;99.90;;;;;;5029194;28;20140;-78
2023/03/05 08:03:41;;;;;;;7.07;1.40;;;2.60;99.90;;;;;;5027676;28;20426;-78
2023/03/05 08:06:07;;;;;;;9.77;1.43;;;2.80;99.90;;;;;;5022407;28;20111;-78
2023/03/05 08:08:35;;;;;;;7.03;1.60;;;2.90;99.90;;;;;;5019303;28;20088;-78
2023/03/05 08:11:12;;;;;;;8.60;0.97;;;3.20;99.90;;;;;;5026640;28;20111;-77
2023/03/05 08:13:38;;;;;;;9.20;1.20;;;3.30;99.90;;;;;;5009468;28;20136;-78
2023/03/05 08:16:06;;;;;;;10.93;1.63;;;3.40;99.90;;;;;;5017552;28;20499;-78
2023/03/05 08:18:32;;;;;;;8.77;1.10;;;3.50;99.90;;;;;;5015689;28;20072;-78
2023/03/05 08:20:58;;;;;;;7.70;1.00;;;3.70;99.90;;;;;;5027976;28;20045;-78
2023/03/05 08:23:24;;;;;;;8.07;1.27;;;3.80;99.90;;;;;;5027027;28;20049;-78
2023/03/05 08:25:50;;;;;;;8.50;1.17;;;4.10;99.90;;;;;;5036855;28;20401;-78
2023/03/05 08:28:18;;;;;;;9.90;1.53;;;4.20;99.90;;;;;;5012770;28;20049;-77
2023/03/05 08:30:45;;;;;;;9.87;1.53;;;4.60;99.90;;;;;;5028672;28;20058;-78
2023/03/05 08:33:13;;;;;;;8.37;1.60;;;5.00;99.90;;;;;;5027888;28;20061;-77
2023/03/05 08:35:39;;;;;;;9.67;1.20;;;5.40;99.90;;;;;;5043559;28;20050;-78
2023/03/05 08:38:04;;;;;;;10.90;1.10;;;5.60;99.90;;;;;;5011786;28;20055;-78
2023/03/05 08:40:30;;;;;;;9.53;1.30;;;5.50;99.90;;;;;;5027071;28;20061;-77
2023/03/05 08:42:58;;;;;;;7.20;1.00;;;5.50;99.90;;;;;;5014832;28;20045;-77
2023/03/05 08:45:26;;;;;;;6.50;0.90;;;5.60;99.90;;;;;;5007996;28;20056;-77
2023/03/05 08:47:56;;;;;;;6.83;1.10;;;5.60;99.90;;;;;;5004158;28;20071;-78
2023/03/05 08:50:22;;;;;;;5.13;0.93;;;5.40;99.90;;;;;;5043458;28;20060;-78
2023/03/05 08:52:49;;;;;;;13.30;1.43;;;5.30;99.90;;;;;;5026825;28;20068;-78
2023/03/05 08:55:15;;;;;;;5.93;1.27;;;5.30;99.90;;;;;;5028940;28;20056;-78
2023/03/05 08:57:41;;;;;;;5.60;0.90;;;5.20;99.90;;;;;;5013109;28;20513;-76
2023/03/05 09:00:09;;;;;;;3.10;0.47;;;4.90;99.90;;;;;;5025330;28;20144;-78
2023/03/05 09:02:35;;;;;;;5.83;0.53;;;4.30;99.90;;;;;;5018978;28;20050;-78
2023/03/05 09:05:01;;;;;;;2.23;0.43;;;3.90;99.90;;;;;;5023229;28;20479;-77
2023/03/05 09:07:27;;;;;;;7.83;0.57;;;3.80;99.90;;;;;;5011809;28;20581;-77
2023/03/05 09:09:52;;;;;;;3.37;0.43;;;3.60;99.90;;;;;;5025465;28;20053;-77
2023/03/05 09:12:18;;;;;;;5.17;0.73;;;3.50;99.90;;;;;;5016836;28;20096;-77
2023/03/05 09:14:44;;;;;;;7.23;1.00;;;3.30;99.90;;;;;;5014024;28;20046;-77
2023/03/05 09:17:09;;;;;;;3.47;0.80;;;3.20;99.90;;;;;;5010597;28;20533;-77
2023/03/05 09:19:35;;;;;;;6.03;0.80;;;3.30;99.90;;;;;;5007772;28;20503;-78
2023/03/05 09:22:01;;;;;;;3.80;0.83;;;3.30;99.90;;;;;;5025777;28;20057;-78
2023/03/05 09:24:26;;;;;;;5.83;0.80;;;3.40;99.90;;;;;;5027368;28;20427;-78
2023/03/05 09:26:52;;;;;;;6.73;1.00;;;3.70;99.90;;;;;;5009774;28;20120;-78
2023/03/05 09:29:18;;;;;;;8.67;1.33;;;4.00;99.90;;;;;;5023777;28;20061;-77
2023/03/05 09:31:43;;;;;;;8.63;1.30;;;4.40;99.90;;;;;;5024099;28;20041;-78
2023/03/05 09:34:10;;;;;;;6.93;1.10;;;4.60;99.90;;;;;;5024200;28;20049;-77
2023/03/05 09:36:36;;;;;;;15.33;1.47;;;4.70;99.90;;;;;;5011462;28;20052;-77
2023/03/05 09:39:03;;;;;;;14.80;1.80;;;5.00;99.90;;;;;;5017057;28;20046;-77
2023/03/05 09:41:36;;;;;;;5.27;0.90;;;5.10;99.90;;;;;;5021434;28;20135;-77
2023/03/05 09:44:22;;;;;;;10.97;1.20;;;5.10;99.90;;;;;;5024096;28;20049;-77
2023/03/05 09:47:03;;;;;;;10.50;1.47;;;5.00;99.90;;;;;;5014359;28;20045;-78
2023/03/05 09:49:49;;;;;;;5.78;1.00;;;5.10;99.90;;;;;;5014395;28;20485;-77
2023/03/05 09:52:30;;;;;;;7.17;0.93;;;5.40;99.90;;;;;;5003515;28;20061;-78
2023/03/05 09:54:57;;;;;;;10.40;1.20;;;5.50;99.90;;;;;;5020097;28;20057;-77
2023/03/05 09:57:41;;;;;;;6.43;1.37;;;5.40;99.90;;;;;;5007216;28;20484;-78
2023/03/05 10:00:27;;;;;;;8.23;1.30;;;5.30;99.90;;;;;;5025071;28;20128;-78
2023/03/05 10:02:58;;;;;;;7.93;1.20;;;5.30;99.90;;;;;;5023808;28;20382;-77
2023/03/05 10:05:49;;;;;;;8.97;0.97;;;5.50;99.90;;;;;;5024113;28;20049;-77
2023/03/05 10:08:21;;;;;;;8.57;1.33;;;5.70;99.90;;;;;;5023341;28;20845;-78
2023/03/05 10:10:49;;;;;;;6.57;1.00;;;5.90;99.90;;;;;;5024569;28;20060;-76
2023/03/05 10:13:32;;;;;;;6.57;0.93;;;5.90;99.90;;;;;;5008546;28;20131;-78
2023/03/05 10:16:30;;;;;;;11.37;1.30;;;6.10;99.90;;;;;;5027226;28;20053;-76
2023/03/05 10:19:17;;;;;;;8.23;1.17;;;6.20;99.90;;;;;;5018691;28;20041;-77
2023/03/05 10:21:59;;;;;;;7.50;1.23;;;6.30;99.90;;;;;;5024098;28;20055;-78
2023/03/05 10:24:49;;;;;;;9.67;1.23;;;6.40;99.90;;;;;;5024457;28;20056;-77
2023/03/05 10:27:55;;;;;;;4.33;0.80;;;6.50;99.90;;;;;;5014081;28;20065;-77
2023/03/05 10:30:24;;;;;;;4.17;0.87;;;6.80;99.90;;;;;;5019881;28;20309;-77
2023/03/05 10:33:27;;;;;;;8.60;1.10;;;7.60;99.90;;;;;;5004294;28;20054;-77
2023/03/05 10:36:10;;;;;;;9.77;1.20;;;7.50;99.90;;;;;;5022854;28;20080;-78
2023/03/05 10:38:50;;;;;;;6.70;0.90;;;7.40;99.90;;;;;;5013721;28;20617;-77
2023/03/05 10:41:35;;;;;;;7.30;0.82;;;7.60;99.90;;;;;;5024540;28;20617;-78
2023/03/05 10:44:31;;;;;;;5.70;0.90;;;7.40;99.90;;;;;;5022506;28;20054;-77
2023/03/05 10:46:58;;;;;;;5.23;0.70;;;7.40;99.90;;;;;;5016462;28;20045;-77
2023/03/05 10:49:41;;;;;;;4.30;0.90;;;7.30;99.90;;;;;;5024048;28;20048;-77
2023/03/05 10:52:15;;;;;;;7.83;1.13;;;7.70;99.90;;;;;;5022520;28;20049;-77
2023/03/05 10:54:41;;;;;;;7.33;1.23;;;8.20;99.90;;;;;;5028864;28;20451;-77
2023/03/05 10:57:22;;;;;;;8.67;1.20;;;8.20;99.90;;;;;;5007550;28;20047;-76
2023/03/05 11:00:17;;;;;;;7.83;1.00;;;8.50;99.90;;;;;;5016712;28;20609;-77
2023/03/05 11:03:06;;;;;;;6.50;1.03;;;8.90;99.90;;;;;;5019364;28;20167;-77
2023/03/05 11:05:43;;;;;;;6.47;0.83;;;8.90;99.90;;;;;;5004288;28;20054;-76
2023/03/05 11:08:24;;;;;;;7.63;0.80;;;9.00;99.90;;;;;;5009823;28;20372;-77
2023/03/05 11:11:08;;;;;;;6.70;1.10;;;9.60;99.90;;;;;;5030537;28;20049;-76
2023/03/05 11:13:37;;;;;;;8.70;1.00;;;9.40;99.90;;;;;;5027352;28;20326;-77
2023/03/05 11:16:05;;;;;;;6.17;0.80;;;9.10;99.90;;;;;;5026769;28;20503;-76
2023/03/05 11:18:36;;;;;;;6.67;0.70;;;9.10;99.90;;;;;;5030424;28;20061;-77
2023/03/05 11:21:26;;;;;;;5.00;0.57;;;8.60;99.90;;;;;;5040134;28;20120;-77
2023/03/05 11:24:12;;;;;;;6.30;0.70;;;8.90;99.90;;;;;;5036040;28;20653;-76
2023/03/05 11:26:51;;;;;;;4.90;0.97;;;9.10;99.90;;;;;;5019918;28;20526;-77
2023/03/05 11:29:23;;;;;;;5.23;0.97;;;9.30;99.90;;;;;;5026589;28;20038;-78
2023/03/05 11:31:50;;;;;;;3.57;0.97;;;8.70;99.90;;;;;;5030369;28;20049;-76
2023/03/05 11:34:18;;;;;;;4.77;0.60;;;8.90;99.90;;;;;;5028607;28;20109;-77
2023/03/05 11:36:51;;;;;;;2.53;0.37;;;8.20;99.90;;;;;;5029326;28;20049;-77
2023/03/05 11:39:21;;;;;;;7.50;0.57;;;7.90;99.90;;;;;;5016696;28;20046;-77
2023/03/05 11:41:57;;;;;;;6.40;0.87;;;7.60;99.90;;;;;;5034207;28;20135;-77
2023/03/05 11:44:33;;;;;;;5.73;0.90;;;8.10;99.90;;;;;;5029055;28;20555;-77
2023/03/05 11:47:22;;;;;;;3.57;0.80;;;7.80;99.90;;;;;;5016706;28;20046;-77
2023/03/05 11:49:53;;;;;;;3.53;0.50;;;7.20;99.90;;;;;;5032407;28;20068;-77
2023/03/05 11:52:32;;;;;;;4.70;0.50;;;7.20;99.90;;;;;;5016786;28;20120;-77
2023/03/05 11:55:35;;;;;;;4.57;0.63;;;7.10;99.90;;;;;;5028145;28;20052;-76
2023/03/05 11:58:18;;;;;;;5.93;0.93;;;7.60;99.90;;;;;;5001816;28;20049;-77
2023/03/05 12:00:45;;;;;;;4.77;0.90;;;8.70;99.90;;;;;;5015995;28;20077;-77
2023/03/05 12:03:16;;;;;;;6.20;0.90;;;8.50;99.90;;;;;;5027153;28;20054;-77
2023/03/05 12:05:45;;;;;;;4.83;0.90;;;8.40;99.90;;;;;;5043769;28;20289;-78
2023/03/05 12:08:18;;;;;;;4.87;0.90;;;7.70;99.90;;;;;;5010863;28;20053;-77
2023/03/05 12:10:44;;;;;;;7.00;1.17;;;7.50;99.90;;;;;;5043948;28;20057;-78
2023/03/05 12:13:15;;;;;;;7.53;1.13;;;7.80;99.90;;;;;;5027982;28;20064;-77
2023/03/05 12:15:55;;;;;;;6.18;1.17;;;8.00;99.90;;;;;;5029143;28;20108;-77
2023/03/05 12:18:46;;;;;;;6.03;0.83;;;8.40;99.90;;;;;;5010729;28;20384;-77
2023/03/05 12:21:25;;;;;;;4.80;0.50;;;8.40;99.90;;;;;;5027629;28;20056;-77
2023/03/05 12:24:02;;;;;;;5.73;0.73;;;8.50;99.90;;;;;;5043337;28;20061;-77
2023/03/05 12:26:54;;;;;;;4.50;0.70;;;8.00;99.90;;;;;;5023198;28;20052;-77
2023/03/05 12:29:40;;;;;;;6.50;0.90;;;8.10;99.90;;;;;;5027755;28;20069;-77
2023/03/05 12:32:21;;;;;;;7.10;0.90;;;7.90;99.90;;;;;;5027873;28;20407;-77
2023/03/05 12:34:58;;;;;;;6.75;0.60;;;7.60;99.90;;;;;;5027811;28;20265;-77
2023/03/05 12:37:24;;;;;;;5.07;1.00;;;8.20;99.90;;;;;;5012040;28;20071;-76
2023/03/05 12:40:18;;;;;;;8.23;1.10;;;8.20;99.90;;;;;;5017147;28;20069;-76
2023/03/05 12:42:50;;;;;;;6.70;0.90;;;7.60;99.90;;;;;;5036009;28;20045;-78
2023/03/05 12:45:15;;;;;;;4.70;0.93;;;7.50;99.90;;;;;;5043916;28;20057;-77
2023/03/05 12:48:11;;;;;;;3.73;0.73;;;7.40;99.90;;;;;;5017163;28;20912;-76
2023/03/05 12:50:36;;;;;;;5.93;0.80;;;7.40;99.90;;;;;;5036338;28;20054;-76
2023/03/05 12:53:10;;;;;;;6.10;0.63;;;7.20;99.90;;;;;;5012824;28;20053;-76
2023/03/05 12:56:00;;;;;;;5.90;1.10;;;7.20;99.90;;;;;;5027869;28;20046;-77
2023/03/05 12:58:38;;;;;;;4.03;0.70;;;6.70;99.90;;;;;;5012497;28;20511;-77
2023/03/05 13:01:10;;;;;;;7.73;1.30;;;6.80;99.90;;;;;;5028027;28;20084;-77
2023/03/05 13:03:38;;;;;;;;;;;7.20;99.90;;;;;;5015173;28;20143;-78
2023/03/05 13:06:06;;;;;;;6.33;0.90;;;7.30;99.90;;;;;;5024088;28;20051;-77
2023/03/05 13:08:34;;;;;;;7.43;1.20;;;7.20;99.90;;;;;;5017586;28;20053;-77